createdAt,value
2022-11-24T00:00:45.226Z,109.18
2022-11-24T00:04:01.112Z,127.03
2022-11-24T00:07:04.804Z,152.70
2022-11-24T00:10:08.083Z,106.82
2022-11-24T00:13:11.814Z,117.05
2022-11-24T00:16:16.335Z,103.40
2022-11-24T00:19:19.860Z,94.55
2022-11-24T00:22:23.895Z,117.60
2022-11-24T00:25:27.799Z,98.35
2022-11-24T00:28:31.306Z,104.30
2022-11-24T00:31:37.907Z,99.32
2022-11-24T00:34:42.981Z,120.63
2022-11-24T00:37:46.255Z,111.00
2022-11-24T00:40:50.255Z,108.50
2022-11-24T00:43:54.252Z,131.15
2022-11-24T00:46:58.257Z,123.22
2022-11-24T00:50:01.823Z,113.32
2022-11-24T00:53:05.867Z,102.03
2022-11-24T00:56:11.076Z,140.02
2022-11-24T00:59:14.971Z,92.97
2022-11-24T01:02:18.608Z,138.63
2022-11-24T01:05:22.651Z,142.02
2022-11-24T01:08:26.267Z,136.00
2022-11-24T01:11:56.059Z,109.05
2022-11-24T01:14:59.783Z,142.95
2022-11-24T01:18:03.395Z,149.80
2022-11-24T01:21:10.013Z,146.07
2022-11-24T01:24:14.914Z,130.35
2022-11-24T01:27:18.544Z,103.00
2022-11-24T01:30:23.897Z,116.87
2022-11-24T01:33:27.756Z,126.72
2022-11-24T01:36:31.826Z,142.32
2022-11-24T01:39:35.448Z,151.43
2022-11-24T01:42:50.073Z,139.60
2022-11-24T01:45:54.320Z,136.38
2022-11-24T01:49:27.790Z,146.70
2022-11-24T01:52:40.262Z,146.70
2022-11-24T01:55:43.317Z,162.43
2022-11-24T01:58:48.403Z,167.30
2022-11-24T02:01:53.493Z,160.50
2022-11-24T02:05:02.361Z,158.55
2022-11-24T02:08:08.610Z,164.43
2022-11-24T02:11:11.676Z,131.40
2022-11-24T02:14:18.678Z,193.90
2022-11-24T02:17:22.492Z,153.43
2022-11-24T02:20:26.991Z,80.22
2022-11-24T02:23:45.069Z,134.63
2022-11-24T02:26:50.101Z,111.15
2022-11-24T02:29:53.899Z,91.80
2022-11-24T02:32:57.516Z,117.83
2022-11-24T02:36:01.179Z,124.50
2022-11-24T02:39:04.522Z,98.35
2022-11-24T02:42:12.598Z,84.70
2022-11-24T02:45:17.602Z,64.50
2022-11-24T02:48:21.203Z,69.40
2022-11-24T02:51:25.268Z,65.45
2022-11-24T02:54:29.296Z,76.05
2022-11-24T02:57:33.185Z,80.82
2022-11-24T03:00:36.508Z,77.55
2022-11-24T03:03:40.728Z,70.97
2022-11-24T03:06:44.261Z,96.68
2022-11-24T03:09:48.164Z,98.88
2022-11-24T03:12:51.790Z,95.13
2022-11-24T03:15:55.853Z,101.35
2022-11-24T03:19:00.148Z,111.63
2022-11-24T03:22:05.090Z,86.28
2022-11-24T03:25:09.274Z,89.85
2022-11-24T03:28:13.254Z,98.35
2022-11-24T03:31:17.160Z,87.53
2022-11-24T03:34:21.367Z,98.90
2022-11-24T03:37:24.599Z,72.00
2022-11-24T03:40:28.567Z,69.13
2022-11-24T03:43:33.410Z,60.60
2022-11-24T03:46:37.585Z,62.80
2022-11-24T03:49:42.047Z,79.70
2022-11-24T03:52:46.063Z,65.35
2022-11-24T03:55:49.594Z,58.78
2022-11-24T03:58:53.498Z,49.95
2022-11-24T04:01:57.228Z,46.85
2022-11-24T04:05:01.555Z,40.40
2022-11-24T04:08:06.361Z,50.75
2022-11-24T04:11:30.050Z,46.50
2022-11-24T04:14:33.821Z,42.70
2022-11-24T04:17:38.086Z,44.00
2022-11-24T04:20:42.713Z,40.13
2022-11-24T04:23:47.017Z,43.70
2022-11-24T04:26:50.293Z,37.50
2022-11-24T04:29:54.264Z,43.03
2022-11-24T04:32:57.958Z,37.40
2022-11-24T04:36:01.505Z,41.73
2022-11-24T04:39:25.523Z,51.95
2022-11-24T04:42:29.050Z,35.80
2022-11-24T04:45:32.254Z,43.25
2022-11-24T04:48:36.199Z,34.50
2022-11-24T04:51:40.615Z,37.35
2022-11-24T04:54:44.702Z,50.60
2022-11-24T04:57:48.297Z,42.40
2022-11-24T05:00:52.248Z,40.63
2022-11-24T05:03:56.511Z,40.08
2022-11-24T05:07:00.057Z,38.38
2022-11-24T05:10:22.100Z,28.73
2022-11-24T05:13:26.037Z,28.08
2022-11-24T05:16:29.750Z,35.03
2022-11-24T05:19:34.286Z,43.30
2022-11-24T05:22:37.901Z,46.60
2022-11-24T05:25:47.327Z,49.03
2022-11-24T05:28:51.382Z,53.83
2022-11-24T05:31:54.758Z,45.47
2022-11-24T05:34:58.901Z,25.45
2022-11-24T05:38:03.103Z,27.45
2022-11-24T05:41:07.014Z,39.03
2022-11-24T05:44:10.973Z,39.10
2022-11-24T05:47:14.524Z,45.30
2022-11-24T05:50:20.786Z,47.67
2022-11-24T05:53:24.505Z,36.97
2022-11-24T05:56:28.103Z,58.70
2022-11-24T05:59:31.450Z,43.05
2022-11-24T06:02:35.802Z,45.50
2022-11-24T06:05:39.382Z,32.83
2022-11-24T06:08:43.353Z,32.38
2022-11-24T06:11:48.755Z,24.02
2022-11-24T06:14:52.425Z,18.38
2022-11-24T06:17:56.905Z,21.98
2022-11-24T06:21:10.677Z,30.65
2022-11-24T06:24:15.324Z,45.77
2022-11-24T06:27:19.833Z,35.13
2022-11-24T06:30:23.407Z,35.67
2022-11-24T06:33:27.289Z,33.53
2022-11-24T06:36:30.831Z,29.45
2022-11-24T06:39:34.799Z,30.58
2022-11-24T06:42:38.815Z,32.40
2022-11-24T06:45:42.754Z,36.97
2022-11-24T06:48:45.963Z,48.83
2022-11-24T06:51:50.035Z,45.47
2022-11-24T06:54:54.245Z,29.47
2022-11-24T06:57:58.144Z,36.17
2022-11-24T07:01:01.738Z,30.67
2022-11-24T07:04:05.743Z,30.70
2022-11-24T07:07:09.359Z,47.15
2022-11-24T07:10:13.270Z,27.85
2022-11-24T07:13:16.635Z,47.95
2022-11-24T07:16:22.945Z,38.70
2022-11-24T07:19:25.878Z,38.13
2022-11-24T07:22:30.199Z,39.08
2022-11-24T07:25:34.208Z,36.87
2022-11-24T07:28:38.748Z,43.97
2022-11-24T07:31:43.055Z,53.67
2022-11-24T07:34:47.137Z,61.60
2022-11-24T07:37:50.266Z,72.95
2022-11-24T07:40:53.192Z,77.88
2022-11-24T07:43:57.060Z,90.80
2022-11-24T07:47:00.947Z,66.38
2022-11-24T07:50:04.588Z,43.30
2022-11-24T07:53:08.544Z,39.00
2022-11-24T07:56:13.099Z,39.77
2022-11-24T07:59:16.507Z,44.30
2022-11-24T08:02:20.169Z,53.97
2022-11-24T08:05:23.977Z,45.83
2022-11-24T08:08:27.875Z,37.97
2022-11-24T08:11:33.791Z,66.90
2022-11-24T08:14:36.921Z,69.43
2022-11-24T08:17:40.990Z,84.78
2022-11-24T08:20:44.176Z,77.28
2022-11-24T08:23:47.707Z,90.88
2022-11-24T08:26:51.362Z,128.07
2022-11-24T08:29:55.395Z,126.32
2022-11-24T08:33:02.246Z,112.35
2022-11-24T08:36:08.782Z,100.10
2022-11-24T08:39:12.678Z,88.38
2022-11-24T08:42:17.067Z,76.93
2022-11-24T08:45:22.479Z,98.60
2022-11-24T08:48:27.236Z,82.35
2022-11-24T08:51:30.796Z,78.60
2022-11-24T08:54:35.066Z,81.40
2022-11-24T08:57:38.879Z,84.20
2022-11-24T09:00:42.885Z,134.30
2022-11-24T09:03:51.100Z,250.38
2022-11-24T09:06:55.333Z,279.50
2022-11-24T09:09:58.835Z,266.05
2022-11-24T09:13:03.113Z,262.10
2022-11-24T09:16:12.849Z,154.32
2022-11-24T09:19:16.689Z,152.27
2022-11-24T09:22:20.228Z,179.55
2022-11-24T09:25:26.922Z,148.68
2022-11-24T09:28:30.106Z,156.33
2022-11-24T09:31:36.674Z,164.68
2022-11-24T09:34:40.196Z,97.47
2022-11-24T09:37:45.659Z,89.97
2022-11-24T09:40:50.541Z,113.15
2022-11-24T09:44:04.270Z,159.75
2022-11-24T09:47:13.242Z,139.05
2022-11-24T09:50:43.404Z,157.55
2022-11-24T09:54:08.970Z,83.13
2022-11-24T09:57:14.631Z,90.22
2022-11-24T10:00:18.499Z,119.23
2022-11-24T10:03:51.694Z,83.28
2022-11-24T10:07:12.556Z,91.57
2022-11-24T10:10:35.593Z,159.00
2022-11-24T10:14:21.339Z,93.15
2022-11-24T10:17:52.211Z,108.95
2022-11-24T10:21:28.871Z,246.70
2022-11-24T10:24:52.849Z,221.52
2022-11-24T10:28:01.022Z,176.13
2022-11-24T10:31:24.037Z,143.23
2022-11-24T10:34:35.387Z,164.03
2022-11-24T10:37:48.591Z,134.95
2022-11-24T10:40:58.081Z,109.28
2022-11-24T10:44:02.017Z,113.73
2022-11-24T10:47:13.420Z,135.73
2022-11-24T10:50:19.946Z,128.30
2022-11-24T10:53:32.481Z,105.80
2022-11-24T10:56:43.063Z,109.80
2022-11-24T10:59:47.240Z,94.88
2022-11-24T11:03:10.562Z,120.78
2022-11-24T11:06:25.312Z,159.33
2022-11-24T11:09:28.096Z,196.73
2022-11-24T11:12:46.873Z,139.77
2022-11-24T11:15:50.459Z,156.80
2022-11-24T11:18:53.956Z,162.38
2022-11-24T11:22:27.699Z,175.05
2022-11-24T11:25:36.155Z,126.70
2022-11-24T11:28:39.655Z,109.63
2022-11-24T11:34:01.103Z,138.02
2022-11-24T11:35:06.115Z,101.00
2022-11-24T11:38:11.762Z,63.87
2022-11-24T11:41:22.672Z,122.72
2022-11-24T11:44:39.239Z,98.97
2022-11-24T11:47:55.253Z,130.10
2022-11-24T11:51:23.680Z,126.40
2022-11-24T11:54:49.350Z,101.40
2022-11-24T11:58:14.512Z,76.72
2022-11-24T12:01:55.187Z,66.78
2022-11-24T12:05:01.825Z,66.55
2022-11-24T12:08:56.019Z,80.88
2022-11-24T12:12:33.853Z,130.77
2022-11-24T12:15:49.112Z,112.18
2022-11-24T12:18:58.872Z,145.75
2022-11-24T12:22:14.775Z,154.27
2022-11-24T12:25:42.189Z,115.00
2022-11-24T12:28:56.478Z,144.75
2022-11-24T12:32:24.960Z,187.80
2022-11-24T12:35:41.670Z,172.07
2022-11-24T12:39:11.524Z,164.45
2022-11-24T12:42:39.736Z,99.40
2022-11-24T12:46:01.328Z,83.70
2022-11-24T12:49:11.078Z,93.00
2022-11-24T12:52:26.645Z,75.55
2022-11-24T12:55:33.104Z,79.43
2022-11-24T12:58:36.512Z,102.63
2022-11-24T13:02:00.412Z,110.20
2022-11-24T13:05:25.735Z,83.10
2022-11-24T13:08:52.984Z,64.40
2022-11-24T13:12:15.978Z,158.80
2022-11-24T13:15:44.718Z,149.32
2022-11-24T13:18:53.317Z,171.33
2022-11-24T13:22:02.811Z,236.98
2022-11-24T13:25:16.641Z,246.85
2022-11-24T13:29:06.147Z,253.30
2022-11-24T13:32:16.092Z,236.48
2022-11-24T13:35:19.085Z,190.38
2022-11-24T13:38:42.060Z,126.82
2022-11-24T13:41:51.425Z,159.90
2022-11-24T13:44:57.591Z,170.65
2022-11-24T13:48:01.289Z,125.88
2022-11-24T13:51:10.463Z,178.80
2022-11-24T13:54:15.740Z,148.70
2022-11-24T13:57:40.528Z,131.30
2022-11-24T14:01:13.086Z,163.87
2022-11-24T14:04:31.836Z,185.32
2022-11-24T14:07:37.065Z,149.88
2022-11-24T14:10:43.195Z,225.75
2022-11-24T14:13:47.121Z,218.18
2022-11-24T14:17:28.114Z,263.25
2022-11-24T14:20:31.959Z,189.80
2022-11-24T14:23:34.833Z,306.03
2022-11-24T14:26:40.935Z,354.08
2022-11-24T14:29:58.537Z,343.55
2022-11-24T14:33:04.301Z,325.13
2022-11-24T14:36:18.184Z,228.95
2022-11-24T14:39:26.317Z,239.25
2022-11-24T14:42:29.539Z,132.13
2022-11-24T14:45:33.670Z,202.50
2022-11-24T14:48:40.764Z,195.68
2022-11-24T14:51:46.061Z,139.68
2022-11-24T14:54:54.969Z,118.00
2022-11-24T14:57:58.699Z,159.98
2022-11-24T15:01:33.520Z,165.88
2022-11-24T15:05:04.525Z,159.10
2022-11-24T15:08:13.853Z,181.80
2022-11-24T15:11:17.616Z,144.00
2022-11-24T15:14:44.386Z,155.73
2022-11-24T15:17:56.844Z,148.75
2022-11-24T15:21:00.659Z,173.40
2022-11-24T15:24:14.864Z,102.00
2022-11-24T15:27:18.706Z,126.13
2022-11-24T15:30:22.303Z,147.40
2022-11-24T15:33:25.269Z,163.52
2022-11-24T15:36:28.372Z,155.47
2022-11-24T15:39:31.874Z,215.57
2022-11-24T15:42:34.736Z,224.35
2022-11-24T15:45:38.265Z,234.30
2022-11-24T15:48:41.197Z,190.88
2022-11-24T15:51:46.358Z,162.00
2022-11-24T15:54:53.477Z,235.07
2022-11-24T15:57:56.813Z,231.53
2022-11-24T16:01:00.212Z,204.40
2022-11-24T16:04:03.627Z,187.57
2022-11-24T16:07:07.672Z,189.27
2022-11-24T16:10:35.882Z,139.93
2022-11-24T16:13:39.387Z,87.35
2022-11-24T16:16:42.903Z,46.17
2022-11-24T16:19:45.822Z,26.40
2022-11-24T16:22:48.794Z,25.95
2022-11-24T16:25:51.744Z,67.20
2022-11-24T16:28:54.661Z,43.00
2022-11-24T16:31:58.582Z,57.78
2022-11-24T16:35:01.458Z,62.10
2022-11-24T16:38:04.446Z,25.43
2022-11-24T16:41:07.878Z,62.97
2022-11-24T16:44:11.172Z,32.53
2022-11-24T16:47:14.176Z,42.83
2022-11-24T16:50:17.368Z,54.92
2022-11-24T16:53:21.063Z,45.10
2022-11-24T16:56:24.824Z,51.20
2022-11-24T16:59:27.757Z,45.13
2022-11-24T17:02:31.797Z,48.92
2022-11-24T17:05:35.351Z,51.00
2022-11-24T17:08:40.383Z,33.57
2022-11-24T17:11:44.110Z,35.17
2022-11-24T17:15:09.341Z,32.78
2022-11-24T17:18:24.599Z,46.58
2022-11-24T17:21:28.917Z,53.08
2022-11-24T17:24:32.529Z,55.45
2022-11-24T17:27:35.467Z,77.20
2022-11-24T17:30:39.079Z,96.83
2022-11-24T17:33:42.622Z,86.30
2022-11-24T17:36:46.594Z,76.78
2022-11-24T17:40:12.626Z,114.80
2022-11-24T17:43:12.314Z,147.50
2022-11-24T17:46:15.761Z,119.57
2022-11-24T17:49:21.593Z,124.68
2022-11-24T17:52:26.713Z,131.07
2022-11-24T17:55:30.492Z,90.13
2022-11-24T17:58:39.718Z,30.10
2022-11-24T18:01:45.531Z,34.60
2022-11-24T18:04:48.365Z,36.70
2022-11-24T18:07:51.596Z,31.63
2022-11-24T18:10:55.096Z,13.60
2022-11-24T18:14:02.143Z,14.43
2022-11-24T18:17:05.548Z,8.88
2022-11-24T18:20:09.889Z,7.15
2022-11-24T18:23:13.572Z,4.43
2022-11-24T18:26:18.158Z,4.40
2022-11-24T18:29:22.047Z,8.70
2022-11-24T18:32:25.572Z,7.73
2022-11-24T18:35:28.379Z,6.93
2022-11-24T18:38:31.664Z,10.07
2022-11-24T18:41:35.035Z,16.87
2022-11-24T18:44:38.608Z,18.45
2022-11-24T18:47:41.489Z,31.45
2022-11-24T18:50:44.737Z,17.45
2022-11-24T18:53:53.841Z,31.60
2022-11-24T18:57:02.958Z,26.52
2022-11-24T19:00:08.171Z,10.73
2022-11-24T19:03:11.371Z,13.20
2022-11-24T19:06:22.647Z,21.35
2022-11-24T19:09:26.392Z,7.00
2022-11-24T19:12:29.422Z,14.50
2022-11-24T19:15:35.294Z,10.85
2022-11-24T19:18:39.012Z,6.68
2022-11-24T19:21:42.101Z,5.18
2022-11-24T19:24:47.983Z,9.05
2022-11-24T19:27:50.772Z,8.88
2022-11-24T19:30:54.048Z,31.85
2022-11-24T19:33:58.870Z,15.33
2022-11-24T19:37:02.009Z,2.38
2022-11-24T19:40:06.186Z,5.03
2022-11-24T19:43:09.107Z,10.83
2022-11-24T19:46:15.117Z,14.40
2022-11-24T19:49:19.164Z,4.32
2022-11-24T19:52:23.647Z,2.40
2022-11-24T19:55:26.959Z,3.42
2022-11-24T19:58:30.799Z,4.57
2022-11-24T20:01:38.239Z,4.25
2022-11-24T20:04:43.551Z,5.97
2022-11-24T20:07:47.598Z,9.32
2022-11-24T20:10:51.275Z,7.47
2022-11-24T20:13:55.350Z,10.70
2022-11-24T20:16:59.273Z,9.27
2022-11-24T20:20:02.132Z,9.75
2022-11-24T20:23:05.610Z,11.27
2022-11-24T20:26:14.689Z,12.50
2022-11-24T20:29:18.141Z,12.43
2022-11-24T20:32:21.644Z,7.47
2022-11-24T20:35:25.591Z,5.33
2022-11-24T20:38:31.599Z,8.40
2022-11-24T20:41:36.647Z,10.18
2022-11-24T20:44:39.688Z,16.93
2022-11-24T20:47:42.603Z,28.90
2022-11-24T20:50:51.118Z,26.33
2022-11-24T20:53:58.434Z,35.40
2022-11-24T20:57:02.048Z,22.80
2022-11-24T21:00:06.728Z,11.77
2022-11-24T21:03:10.231Z,28.40
2022-11-24T21:06:15.198Z,14.90
2022-11-24T21:09:19.851Z,8.65
2022-11-24T21:12:23.227Z,18.90
2022-11-24T21:15:26.774Z,15.40
2022-11-24T21:18:30.691Z,27.05
2022-11-24T21:21:35.942Z,17.85
2022-11-24T21:24:39.103Z,29.27
2022-11-24T21:27:41.867Z,23.02
2022-11-24T21:30:45.020Z,21.15
2022-11-24T21:33:50.808Z,14.02
2022-11-24T21:36:53.736Z,17.17
2022-11-24T21:39:56.868Z,18.88
2022-11-24T21:43:00.211Z,12.02
2022-11-24T21:46:11.801Z,11.23
2022-11-24T21:49:15.467Z,9.70
2022-11-24T21:52:19.241Z,9.38
2022-11-24T21:55:22.413Z,20.25
2022-11-24T21:58:26.886Z,22.20
2022-11-24T22:01:30.864Z,14.05
2022-11-24T22:04:34.676Z,20.10
2022-11-24T22:07:38.238Z,12.97
2022-11-24T22:10:41.100Z,14.40
2022-11-24T22:13:45.164Z,18.48
2022-11-24T22:16:48.072Z,8.60
2022-11-24T22:19:51.288Z,16.15
2022-11-24T22:22:54.914Z,16.23
2022-11-24T22:26:03.787Z,26.40
2022-11-24T22:29:08.266Z,12.93
2022-11-24T22:32:12.388Z,20.13
2022-11-24T22:35:15.652Z,25.17
2022-11-24T22:38:18.928Z,21.20
2022-11-24T22:41:22.747Z,6.00
2022-11-24T22:44:26.746Z,12.00
2022-11-24T22:47:30.618Z,17.87
2022-11-24T22:50:33.562Z,19.50
2022-11-24T22:53:36.927Z,36.20
2022-11-24T22:56:39.798Z,30.98
2022-11-24T22:59:42.593Z,34.05
2022-11-24T23:02:45.413Z,37.40
2022-11-24T23:05:48.947Z,31.75
2022-11-24T23:08:52.935Z,33.73
2022-11-24T23:11:56.624Z,19.73
2022-11-24T23:14:59.445Z,13.15
2022-11-24T23:18:03.030Z,12.83
2022-11-24T23:21:16.982Z,13.85
2022-11-24T23:24:20.286Z,23.33
2022-11-24T23:27:23.763Z,9.10
2022-11-24T23:30:26.689Z,19.60
2022-11-24T23:33:30.022Z,7.25
2022-11-24T23:36:34.433Z,3.40
2022-11-24T23:39:37.291Z,7.70
2022-11-24T23:42:40.578Z,6.50
2022-11-24T23:45:43.480Z,5.53
2022-11-24T23:48:46.611Z,7.97
2022-11-24T23:51:50.201Z,8.73
2022-11-24T23:54:53.008Z,7.68
2022-11-24T23:57:55.831Z,6.93
